sensor_id;sensor_type;location;lat;lon;timestamp;temperature;humidity
14769;DHT22;7476;49.404;11.152;2022-11-21T00:00:30;4.20;99.90
14769;DHT22;7476;49.404;11.152;2022-11-21T00:03:00;4.20;99.90
14769;DHT22;7476;49.404;11.152;2022-11-21T00:05:27;4.20;99.90
14769;DHT22;7476;49.404;11.152;2022-11-21T00:07:54;4.20;99.90
14769;DHT22;7476;49.404;11.152;2022-11-21T00:10:21;4.20;99.90
14769;DHT22;7476;49.404;11.152;2022-11-21T00:12:52;4.20;99.90
14769;DHT22;7476;49.404;11.152;2022-11-21T00:15:19;4.20;99.90
14769;DHT22;7476;49.404;11.152;2022-11-21T00:17:46;4.30;99.90
14769;DHT22;7476;49.404;11.152;2022-11-21T00:20:14;4.30;99.90
14769;DHT22;7476;49.404;11.152;2022-11-21T00:22:41;4.30;99.90
14769;DHT22;7476;49.404;11.152;2022-11-21T00:25:08;4.30;99.90
14769;DHT22;7476;49.404;11.152;2022-11-21T00:27:35;4.40;99.90
14769;DHT22;7476;49.404;11.152;2022-11-21T00:30:02;4.40;99.90
14769;DHT22;7476;49.404;11.152;2022-11-21T00:32:29;4.40;99.90
14769;DHT22;7476;49.404;11.152;2022-11-21T00:34:56;4.50;99.90
14769;DHT22;7476;49.404;11.152;2022-11-21T00:37:24;4.50;99.90
14769;DHT22;7476;49.404;11.152;2022-11-21T00:39:51;4.50;99.90
14769;DHT22;7476;49.404;11.152;2022-11-21T00:42:19;4.50;99.90
14769;DHT22;7476;49.404;11.152;2022-11-21T00:44:45;4.50;99.90
14769;DHT22;7476;49.404;11.152;2022-11-21T00:47:12;4.50;99.90
14769;DHT22;7476;49.404;11.152;2022-11-21T00:49:39;4.60;99.90
14769;DHT22;7476;49.404;11.152;2022-11-21T00:52:06;4.60;99.90
14769;DHT22;7476;49.404;11.152;2022-11-21T00:54:34;4.60;99.90
14769;DHT22;7476;49.404;11.152;2022-11-21T00:57:01;4.70;99.90
14769;DHT22;7476;49.404;11.152;2022-11-21T00:59:28;4.70;99.90
14769;DHT22;7476;49.404;11.152;2022-11-21T01:01:55;4.80;99.90
14769;DHT22;7476;49.404;11.152;2022-11-21T01:04:22;4.80;99.90
14769;DHT22;7476;49.404;11.152;2022-11-21T01:06:49;4.80;99.90
14769;DHT22;7476;49.404;11.152;2022-11-21T01:09:15;4.80;99.90
14769;DHT22;7476;49.404;11.152;2022-11-21T01:11:43;4.80;99.90
14769;DHT22;7476;49.404;11.152;2022-11-21T01:14:10;4.80;99.90
14769;DHT22;7476;49.404;11.152;2022-11-21T01:16:37;4.90;99.90
14769;DHT22;7476;49.404;11.152;2022-11-21T01:19:03;4.90;99.90
14769;DHT22;7476;49.404;11.152;2022-11-21T01:21:31;4.90;99.90
14769;DHT22;7476;49.404;11.152;2022-11-21T01:23:58;4.90;99.90
14769;DHT22;7476;49.404;11.152;2022-11-21T01:26:27;4.90;99.90
14769;DHT22;7476;49.404;11.152;2022-11-21T01:28:56;5.00;99.90
14769;DHT22;7476;49.404;11.152;2022-11-21T01:31:25;5.00;99.90
14769;DHT22;7476;49.404;11.152;2022-11-21T01:33:52;5.10;99.90
14769;DHT22;7476;49.404;11.152;2022-11-21T01:36:20;5.10;99.90
14769;DHT22;7476;49.404;11.152;2022-11-21T01:38:49;5.10;99.90
14769;DHT22;7476;49.404;11.152;2022-11-21T01:41:18;5.10;99.90
14769;DHT22;7476;49.404;11.152;2022-11-21T01:43:45;5.10;99.90
14769;DHT22;7476;49.404;11.152;2022-11-21T01:46:15;5.10;99.90
14769;DHT22;7476;49.404;11.152;2022-11-21T01:48:45;5.20;99.90
14769;DHT22;7476;49.404;11.152;2022-11-21T01:51:18;5.10;99.90
14769;DHT22;7476;49.404;11.152;2022-11-21T01:53:49;5.20;99.90
14769;DHT22;7476;49.404;11.152;2022-11-21T01:56:18;5.10;99.90
14769;DHT22;7476;49.404;11.152;2022-11-21T01:58:45;5.10;99.90
14769;DHT22;7476;49.404;11.152;2022-11-21T02:01:14;5.10;99.90
14769;DHT22;7476;49.404;11.152;2022-11-21T02:03:41;5.10;99.90
14769;DHT22;7476;49.404;11.152;2022-11-21T02:06:10;5.10;99.90
14769;DHT22;7476;49.404;11.152;2022-11-21T02:08:38;5.10;99.90
14769;DHT22;7476;49.404;11.152;2022-11-21T02:11:11;5.10;99.90
14769;DHT22;7476;49.404;11.152;2022-11-21T02:13:41;5.10;99.90
14769;DHT22;7476;49.404;11.152;2022-11-21T02:16:08;5.10;99.90
14769;DHT22;7476;49.404;11.152;2022-11-21T02:18:36;5.00;99.90
14769;DHT22;7476;49.404;11.152;2022-11-21T02:21:10;5.00;99.90
14769;DHT22;7476;49.404;11.152;2022-11-21T02:23:41;5.00;99.90
14769;DHT22;7476;49.404;11.152;2022-11-21T02:26:12;5.00;99.90
14769;DHT22;7476;49.404;11.152;2022-11-21T02:28:39;5.00;99.90
14769;DHT22;7476;49.404;11.152;2022-11-21T02:31:06;5.00;99.90
14769;DHT22;7476;49.404;11.152;2022-11-21T02:33:33;5.00;99.90
14769;DHT22;7476;49.404;11.152;2022-11-21T02:36:00;5.00;99.90
14769;DHT22;7476;49.404;11.152;2022-11-21T02:38:30;5.00;99.90
14769;DHT22;7476;49.404;11.152;2022-11-21T02:41:03;4.90;99.90
14769;DHT22;7476;49.404;11.152;2022-11-21T02:43:36;4.90;99.90
14769;DHT22;7476;49.404;11.152;2022-11-21T02:46:03;4.90;99.90
14769;DHT22;7476;49.404;11.152;2022-11-21T02:48:30;4.90;99.90
14769;DHT22;7476;49.404;11.152;2022-11-21T02:50:57;4.90;99.90
14769;DHT22;7476;49.404;11.152;2022-11-21T02:53:24;4.90;99.90
14769;DHT22;7476;49.404;11.152;2022-11-21T02:55:51;4.90;99.90
14769;DHT22;7476;49.404;11.152;2022-11-21T02:58:17;4.90;99.90
14769;DHT22;7476;49.404;11.152;2022-11-21T03:00:46;4.90;99.90
14769;DHT22;7476;49.404;11.152;2022-11-21T03:03:13;4.80;99.90
14769;DHT22;7476;49.404;11.152;2022-11-21T03:05:40;4.80;99.90
14769;DHT22;7476;49.404;11.152;2022-11-21T03:08:07;4.80;99.90
14769;DHT22;7476;49.404;11.152;2022-11-21T03:10:34;4.80;99.90
14769;DHT22;7476;49.404;11.152;2022-11-21T03:13:01;4.80;99.90
14769;DHT22;7476;49.404;11.152;2022-11-21T03:15:29;4.80;99.90
14769;DHT22;7476;49.404;11.152;2022-11-21T03:17:58;4.80;99.90
14769;DHT22;7476;49.404;11.152;2022-11-21T03:20:27;4.80;99.90
14769;DHT22;7476;49.404;11.152;2022-11-21T03:22:53;4.80;99.90
14769;DHT22;7476;49.404;11.152;2022-11-21T03:25:20;4.80;99.90
14769;DHT22;7476;49.404;11.152;2022-11-21T03:27:49;4.80;99.90
14769;DHT22;7476;49.404;11.152;2022-11-21T03:30:17;4.80;99.90
14769;DHT22;7476;49.404;11.152;2022-11-21T03:32:44;4.80;99.90
14769;DHT22;7476;49.404;11.152;2022-11-21T03:35:12;4.80;99.90
14769;DHT22;7476;49.404;11.152;2022-11-21T03:37:39;4.80;99.90
14769;DHT22;7476;49.404;11.152;2022-11-21T03:40:07;4.80;99.90
14769;DHT22;7476;49.404;11.152;2022-11-21T03:42:34;4.70;99.90
14769;DHT22;7476;49.404;11.152;2022-11-21T03:45:00;4.70;99.90
14769;DHT22;7476;49.404;11.152;2022-11-21T03:47:27;4.70;99.90
14769;DHT22;7476;49.404;11.152;2022-11-21T03:49:54;4.70;99.90
14769;DHT22;7476;49.404;11.152;2022-11-21T03:52:22;4.70;99.90
14769;DHT22;7476;49.404;11.152;2022-11-21T03:54:48;4.70;99.90
14769;DHT22;7476;49.404;11.152;2022-11-21T03:57:15;4.80;99.90
14769;DHT22;7476;49.404;11.152;2022-11-21T03:59:42;4.70;99.90
14769;DHT22;7476;49.404;11.152;2022-11-21T04:02:08;4.70;99.90
14769;DHT22;7476;49.404;11.152;2022-11-21T04:04:35;4.70;99.90
14769;DHT22;7476;49.404;11.152;2022-11-21T04:07:02;4.70;99.90
14769;DHT22;7476;49.404;11.152;2022-11-21T04:09:30;4.70;99.90
14769;DHT22;7476;49.404;11.152;2022-11-21T04:11:56;4.70;99.90
14769;DHT22;7476;49.404;11.152;2022-11-21T04:14:23;4.70;99.90
14769;DHT22;7476;49.404;11.152;2022-11-21T04:16:50;4.70;99.90
14769;DHT22;7476;49.404;11.152;2022-11-21T04:19:16;4.70;99.90
14769;DHT22;7476;49.404;11.152;2022-11-21T04:21:43;4.80;99.90
14769;DHT22;7476;49.404;11.152;2022-11-21T04:24:10;4.80;99.90
14769;DHT22;7476;49.404;11.152;2022-11-21T04:26:38;4.80;99.90
14769;DHT22;7476;49.404;11.152;2022-11-21T04:29:04;4.80;99.90
14769;DHT22;7476;49.404;11.152;2022-11-21T04:31:31;4.80;99.90
14769;DHT22;7476;49.404;11.152;2022-11-21T04:33:58;4.90;99.90
14769;DHT22;7476;49.404;11.152;2022-11-21T04:36:24;4.90;99.90
14769;DHT22;7476;49.404;11.152;2022-11-21T04:38:51;4.90;99.90
14769;DHT22;7476;49.404;11.152;2022-11-21T04:41:18;4.90;99.90
14769;DHT22;7476;49.404;11.152;2022-11-21T04:43:46;4.90;99.90
14769;DHT22;7476;49.404;11.152;2022-11-21T04:46:12;4.90;99.90
14769;DHT22;7476;49.404;11.152;2022-11-21T04:48:39;4.90;99.90
14769;DHT22;7476;49.404;11.152;2022-11-21T04:51:06;4.90;99.90
14769;DHT22;7476;49.404;11.152;2022-11-21T04:53:32;4.80;99.90
14769;DHT22;7476;49.404;11.152;2022-11-21T04:56:02;4.90;99.90
14769;DHT22;7476;49.404;11.152;2022-11-21T04:58:29;4.90;99.90
14769;DHT22;7476;49.404;11.152;2022-11-21T05:00:58;4.90;99.90
14769;DHT22;7476;49.404;11.152;2022-11-21T05:03:30;4.90;99.90
14769;DHT22;7476;49.404;11.152;2022-11-21T05:05:59;4.90;99.90
14769;DHT22;7476;49.404;11.152;2022-11-21T05:08:25;4.90;99.90
14769;DHT22;7476;49.404;11.152;2022-11-21T05:10:52;4.90;99.90
14769;DHT22;7476;49.404;11.152;2022-11-21T05:13:36;4.90;99.90
14769;DHT22;7476;49.404;11.152;2022-11-21T05:16:05;4.90;99.90
14769;DHT22;7476;49.404;11.152;2022-11-21T05:18:31;5.00;99.90
14769;DHT22;7476;49.404;11.152;2022-11-21T05:20:59;5.00;99.90
14769;DHT22;7476;49.404;11.152;2022-11-21T05:23:26;4.90;99.90
14769;DHT22;7476;49.404;11.152;2022-11-21T05:25:53;4.90;99.90
14769;DHT22;7476;49.404;11.152;2022-11-21T05:28:20;4.80;99.90
14769;DHT22;7476;49.404;11.152;2022-11-21T05:30:46;4.80;99.90
14769;DHT22;7476;49.404;11.152;2022-11-21T05:33:14;4.80;99.90
14769;DHT22;7476;49.404;11.152;2022-11-21T05:35:41;4.80;99.90
14769;DHT22;7476;49.404;11.152;2022-11-21T05:38:08;4.70;99.90
14769;DHT22;7476;49.404;11.152;2022-11-21T05:40:34;4.60;99.90
14769;DHT22;7476;49.404;11.152;2022-11-21T05:43:01;4.50;99.90
14769;DHT22;7476;49.404;11.152;2022-11-21T05:45:47;4.40;99.90
14769;DHT22;7476;49.404;11.152;2022-11-21T05:48:15;4.40;99.90
14769;DHT22;7476;49.404;11.152;2022-11-21T05:50:46;4.30;99.90
14769;DHT22;7476;49.404;11.152;2022-11-21T05:53:14;4.30;99.90
14769;DHT22;7476;49.404;11.152;2022-11-21T05:55:41;4.20;99.90
14769;DHT22;7476;49.404;11.152;2022-11-21T05:58:07;4.10;99.90
14769;DHT22;7476;49.404;11.152;2022-11-21T06:00:35;4.10;99.90
14769;DHT22;7476;49.404;11.152;2022-11-21T06:03:02;4.10;99.90
14769;DHT22;7476;49.404;11.152;2022-11-21T06:05:48;4.10;99.90
14769;DHT22;7476;49.404;11.152;2022-11-21T06:08:14;4.00;99.90
14769;DHT22;7476;49.404;11.152;2022-11-21T06:10:41;4.00;99.90
14769;DHT22;7476;49.404;11.152;2022-11-21T06:13:08;4.00;99.90
14769;DHT22;7476;49.404;11.152;2022-11-21T06:15:47;4.00;99.90
14769;DHT22;7476;49.404;11.152;2022-11-21T06:18:14;3.90;99.90
14769;DHT22;7476;49.404;11.152;2022-11-21T06:20:40;3.90;99.90
14769;DHT22;7476;49.404;11.152;2022-11-21T06:23:08;3.90;99.90
14769;DHT22;7476;49.404;11.152;2022-11-21T06:25:35;4.00;99.90
14769;DHT22;7476;49.404;11.152;2022-11-21T06:28:02;4.10;99.90
14769;DHT22;7476;49.404;11.152;2022-11-21T06:30:28;4.10;99.90
14769;DHT22;7476;49.404;11.152;2022-11-21T06:32:55;4.10;99.90
14769;DHT22;7476;49.404;11.152;2022-11-21T06:35:22;4.00;99.90
14769;DHT22;7476;49.404;11.152;2022-11-21T06:37:49;4.00;99.90
14769;DHT22;7476;49.404;11.152;2022-11-21T06:40:17;4.00;99.90
14769;DHT22;7476;49.404;11.152;2022-11-21T06:42:44;4.00;99.90
14769;DHT22;7476;49.404;11.152;2022-11-21T06:45:10;4.10;99.90
14769;DHT22;7476;49.404;11.152;2022-11-21T06:47:37;4.10;99.90
14769;DHT22;7476;49.404;11.152;2022-11-21T06:50:04;4.10;99.90
14769;DHT22;7476;49.404;11.152;2022-11-21T06:52:31;4.00;99.90
14769;DHT22;7476;49.404;11.152;2022-11-21T06:54:58;4.10;99.90
14769;DHT22;7476;49.404;11.152;2022-11-21T06:57:27;4.10;99.90
14769;DHT22;7476;49.404;11.152;2022-11-21T06:59:53;4.10;99.90
14769;DHT22;7476;49.404;11.152;2022-11-21T07:02:20;4.20;99.90
14769;DHT22;7476;49.404;11.152;2022-11-21T07:04:47;4.20;99.90
14769;DHT22;7476;49.404;11.152;2022-11-21T07:07:13;4.20;99.90
14769;DHT22;7476;49.404;11.152;2022-11-21T07:09:40;4.20;99.90
14769;DHT22;7476;49.404;11.152;2022-11-21T07:12:09;4.10;99.90
14769;DHT22;7476;49.404;11.152;2022-11-21T07:14:54;4.00;99.90
14769;DHT22;7476;49.404;11.152;2022-11-21T07:17:21;4.10;99.90
14769;DHT22;7476;49.404;11.152;2022-11-21T07:19:48;4.10;99.90
14769;DHT22;7476;49.404;11.152;2022-11-21T07:22:15;4.10;99.90
14769;DHT22;7476;49.404;11.152;2022-11-21T07:24:41;4.20;99.90
14769;DHT22;7476;49.404;11.152;2022-11-21T07:27:08;4.20;99.90
14769;DHT22;7476;49.404;11.152;2022-11-21T07:29:35;4.20;99.90
14769;DHT22;7476;49.404;11.152;2022-11-21T07:32:03;4.20;99.90
14769;DHT22;7476;49.404;11.152;2022-11-21T07:34:30;4.30;99.90
14769;DHT22;7476;49.404;11.152;2022-11-21T07:36:56;4.40;99.90
14769;DHT22;7476;49.404;11.152;2022-11-21T07:39:23;4.40;99.90
14769;DHT22;7476;49.404;11.152;2022-11-21T07:41:50;4.50;99.90
14769;DHT22;7476;49.404;11.152;2022-11-21T07:44:16;4.60;99.90
14769;DHT22;7476;49.404;11.152;2022-11-21T07:46:43;4.60;99.90
14769;DHT22;7476;49.404;11.152;2022-11-21T07:49:11;4.70;99.90
14769;DHT22;7476;49.404;11.152;2022-11-21T07:51:38;4.70;99.90
14769;DHT22;7476;49.404;11.152;2022-11-21T07:54:05;4.70;99.90
14769;DHT22;7476;49.404;11.152;2022-11-21T07:56:32;4.70;99.90
14769;DHT22;7476;49.404;11.152;2022-11-21T07:58:58;4.70;99.90
14769;DHT22;7476;49.404;11.152;2022-11-21T08:01:26;4.70;99.90
14769;DHT22;7476;49.404;11.152;2022-11-21T08:03:53;4.80;99.90
14769;DHT22;7476;49.404;11.152;2022-11-21T08:06:21;4.90;99.90
14769;DHT22;7476;49.404;11.152;2022-11-21T08:08:51;5.00;99.90
14769;DHT22;7476;49.404;11.152;2022-11-21T08:11:18;5.10;99.90
14769;DHT22;7476;49.404;11.152;2022-11-21T08:13:45;5.20;99.90
14769;DHT22;7476;49.404;11.152;2022-11-21T08:16:12;5.30;99.90
14769;DHT22;7476;49.404;11.152;2022-11-21T08:18:38;5.40;99.90
14769;DHT22;7476;49.404;11.152;2022-11-21T08:21:05;5.50;99.90
14769;DHT22;7476;49.404;11.152;2022-11-21T08:23:36;5.70;99.90
14769;DHT22;7476;49.404;11.152;2022-11-21T08:26:03;5.80;99.90
14769;DHT22;7476;49.404;11.152;2022-11-21T08:28:30;5.90;99.90
14769;DHT22;7476;49.404;11.152;2022-11-21T08:31:02;5.90;99.90
14769;DHT22;7476;49.404;11.152;2022-11-21T08:33:29;5.90;99.90
14769;DHT22;7476;49.404;11.152;2022-11-21T08:35:56;5.90;99.90
14769;DHT22;7476;49.404;11.152;2022-11-21T08:38:23;5.80;99.90
14769;DHT22;7476;49.404;11.152;2022-11-21T08:40:51;5.80;99.90
14769;DHT22;7476;49.404;11.152;2022-11-21T08:43:38;5.80;99.90
14769;DHT22;7476;49.404;11.152;2022-11-21T08:46:05;6.00;99.90
14769;DHT22;7476;49.404;11.152;2022-11-21T08:48:32;6.30;99.90
14769;DHT22;7476;49.404;11.152;2022-11-21T08:50:59;6.60;99.90
14769;DHT22;7476;49.404;11.152;2022-11-21T08:53:26;6.80;99.90
14769;DHT22;7476;49.404;11.152;2022-11-21T08:55:54;6.90;99.90
14769;DHT22;7476;49.404;11.152;2022-11-21T08:58:21;7.00;99.90
14769;DHT22;7476;49.404;11.152;2022-11-21T09:00:47;7.30;99.90
14769;DHT22;7476;49.404;11.152;2022-11-21T09:03:14;7.30;99.90
14769;DHT22;7476;49.404;11.152;2022-11-21T09:05:41;7.20;99.90
14769;DHT22;7476;49.404;11.152;2022-11-21T09:08:08;7.00;99.90
14769;DHT22;7476;49.404;11.152;2022-11-21T09:10:34;6.90;99.90
14769;DHT22;7476;49.404;11.152;2022-11-21T09:13:02;6.80;99.90
14769;DHT22;7476;49.404;11.152;2022-11-21T09:15:29;6.70;99.90
14769;DHT22;7476;49.404;11.152;2022-11-21T09:18:13;6.60;99.90
14769;DHT22;7476;49.404;11.152;2022-11-21T09:20:41;6.70;99.90
14769;DHT22;7476;49.404;11.152;2022-11-21T09:23:10;7.00;99.90
14769;DHT22;7476;49.404;11.152;2022-11-21T09:25:38;7.10;99.90
14769;DHT22;7476;49.404;11.152;2022-11-21T09:28:07;7.10;99.90
14769;DHT22;7476;49.404;11.152;2022-11-21T09:30:34;7.00;99.90
14769;DHT22;7476;49.404;11.152;2022-11-21T09:33:02;6.90;99.90
14769;DHT22;7476;49.404;11.152;2022-11-21T09:35:29;6.80;99.90
14769;DHT22;7476;49.404;11.152;2022-11-21T09:37:55;6.80;99.90
14769;DHT22;7476;49.404;11.152;2022-11-21T09:40:23;7.00;99.90
14769;DHT22;7476;49.404;11.152;2022-11-21T09:42:59;7.20;99.90
14769;DHT22;7476;49.404;11.152;2022-11-21T09:45:32;7.30;99.90
14769;DHT22;7476;49.404;11.152;2022-11-21T09:48:02;7.40;99.90
14769;DHT22;7476;49.404;11.152;2022-11-21T09:50:33;7.50;99.90
14769;DHT22;7476;49.404;11.152;2022-11-21T09:53:04;7.40;99.90
14769;DHT22;7476;49.404;11.152;2022-11-21T09:55:38;7.20;99.90
14769;DHT22;7476;49.404;11.152;2022-11-21T09:58:16;7.10;99.90
14769;DHT22;7476;49.404;11.152;2022-11-21T10:00:49;7.00;99.90
14769;DHT22;7476;49.404;11.152;2022-11-21T10:03:17;7.20;99.90
14769;DHT22;7476;49.404;11.152;2022-11-21T10:05:48;7.50;99.90
14769;DHT22;7476;49.404;11.152;2022-11-21T10:08:20;7.70;99.90
14769;DHT22;7476;49.404;11.152;2022-11-21T10:10:54;7.90;99.90
14769;DHT22;7476;49.404;11.152;2022-11-21T10:13:37;8.10;99.90
14769;DHT22;7476;49.404;11.152;2022-11-21T10:16:14;8.30;99.90
14769;DHT22;7476;49.404;11.152;2022-11-21T10:19:00;8.40;99.90
14769;DHT22;7476;49.404;11.152;2022-11-21T10:21:48;8.50;99.90
14769;DHT22;7476;49.404;11.152;2022-11-21T10:24:34;8.60;99.90
14769;DHT22;7476;49.404;11.152;2022-11-21T10:27:06;8.80;99.90
14769;DHT22;7476;49.404;11.152;2022-11-21T10:29:39;9.00;99.90
14769;DHT22;7476;49.404;11.152;2022-11-21T10:32:16;8.90;99.90
14769;DHT22;7476;49.404;11.152;2022-11-21T10:34:45;8.70;99.90
14769;DHT22;7476;49.404;11.152;2022-11-21T10:37:14;8.40;99.90
14769;DHT22;7476;49.404;11.152;2022-11-21T10:39:45;8.30;99.90
14769;DHT22;7476;49.404;11.152;2022-11-21T10:42:17;8.20;99.90
14769;DHT22;7476;49.404;11.152;2022-11-21T10:44:51;8.10;99.90
14769;DHT22;7476;49.404;11.152;2022-11-21T10:47:37;8.10;99.90
14769;DHT22;7476;49.404;11.152;2022-11-21T10:50:14;7.70;99.90
14769;DHT22;7476;49.404;11.152;2022-11-21T10:52:47;7.50;99.90
14769;DHT22;7476;49.404;11.152;2022-11-21T10:55:16;7.30;99.90
14769;DHT22;7476;49.404;11.152;2022-11-21T10:57:45;7.20;99.90
14769;DHT22;7476;49.404;11.152;2022-11-21T11:00:21;7.00;99.90
14769;DHT22;7476;49.404;11.152;2022-11-21T11:03:01;6.90;99.90
14769;DHT22;7476;49.404;11.152;2022-11-21T11:05:30;6.80;99.90
14769;DHT22;7476;49.404;11.152;2022-11-21T11:08:00;6.70;99.90
14769;DHT22;7476;49.404;11.152;2022-11-21T11:10:28;6.60;99.90
14769;DHT22;7476;49.404;11.152;2022-11-21T11:12:55;6.40;99.90
14769;DHT22;7476;49.404;11.152;2022-11-21T11:15:53;6.40;99.90
14769;DHT22;7476;49.404;11.152;2022-11-21T11:18:22;6.30;99.90
14769;DHT22;7476;49.404;11.152;2022-11-21T11:20:50;6.30;99.90
14769;DHT22;7476;49.404;11.152;2022-11-21T11:23:24;6.20;99.90
14769;DHT22;7476;49.404;11.152;2022-11-21T11:25:53;6.30;99.90
14769;DHT22;7476;49.404;11.152;2022-11-21T11:28:20;6.80;99.90
14769;DHT22;7476;49.404;11.152;2022-11-21T11:30:49;7.80;99.90
14769;DHT22;7476;49.404;11.152;2022-11-21T11:33:32;8.20;99.90
14769;DHT22;7476;49.404;11.152;2022-11-21T11:36:12;8.20;99.90
14769;DHT22;7476;49.404;11.152;2022-11-21T11:38:42;8.10;99.90
14769;DHT22;7476;49.404;11.152;2022-11-21T11:41:24;8.00;99.90
14769;DHT22;7476;49.404;11.152;2022-11-21T11:44:01;7.80;99.90
14769;DHT22;7476;49.404;11.152;2022-11-21T11:46:54;7.80;99.90
14769;DHT22;7476;49.404;11.152;2022-11-21T11:49:47;7.60;99.90
14769;DHT22;7476;49.404;11.152;2022-11-21T11:52:38;7.50;99.90
14769;DHT22;7476;49.404;11.152;2022-11-21T11:55:14;7.50;99.90
14769;DHT22;7476;49.404;11.152;2022-11-21T11:57:42;7.60;99.90
14769;DHT22;7476;49.404;11.152;2022-11-21T12:00:31;7.80;99.90
14769;DHT22;7476;49.404;11.152;2022-11-21T12:03:05;7.90;99.90
14769;DHT22;7476;49.404;11.152;2022-11-21T12:05:50;8.80;99.90
14769;DHT22;7476;49.404;11.152;2022-11-21T12:08:22;10.20;99.90
14769;DHT22;7476;49.404;11.152;2022-11-21T12:10:58;11.40;99.90
14769;DHT22;7476;49.404;11.152;2022-11-21T12:13:43;11.40;99.90
14769;DHT22;7476;49.404;11.152;2022-11-21T12:16:13;10.60;99.90
14769;DHT22;7476;49.404;11.152;2022-11-21T12:18:47;11.30;99.90
14769;DHT22;7476;49.404;11.152;2022-11-21T12:21:17;12.40;99.90
14769;DHT22;7476;49.404;11.152;2022-11-21T12:23:46;12.20;99.90
14769;DHT22;7476;49.404;11.152;2022-11-21T12:26:34;11.40;99.90
14769;DHT22;7476;49.404;11.152;2022-11-21T12:29:19;10.40;99.90
14769;DHT22;7476;49.404;11.152;2022-11-21T12:32:00;9.20;99.90
14769;DHT22;7476;49.404;11.152;2022-11-21T12:34:42;8.50;99.90
14769;DHT22;7476;49.404;11.152;2022-11-21T12:37:19;8.20;99.90
14769;DHT22;7476;49.404;11.152;2022-11-21T12:39:58;7.80;99.90
14769;DHT22;7476;49.404;11.152;2022-11-21T12:42:27;7.50;99.90
14769;DHT22;7476;49.404;11.152;2022-11-21T12:45:28;7.60;99.90
14769;DHT22;7476;49.404;11.152;2022-11-21T12:48:15;7.90;99.90
14769;DHT22;7476;49.404;11.152;2022-11-21T12:51:19;9.20;99.90
14769;DHT22;7476;49.404;11.152;2022-11-21T12:54:24;9.40;99.90
14769;DHT22;7476;49.404;11.152;2022-11-21T12:57:04;9.80;99.90
14769;DHT22;7476;49.404;11.152;2022-11-21T12:59:50;11.30;99.90
14769;DHT22;7476;49.404;11.152;2022-11-21T13:02:27;13.30;99.90
14769;DHT22;7476;49.404;11.152;2022-11-21T13:04:57;12.90;99.90
14769;DHT22;7476;49.404;11.152;2022-11-21T13:07:27;12.80;99.90
14769;DHT22;7476;49.404;11.152;2022-11-21T13:09:58;11.80;99.90
14769;DHT22;7476;49.404;11.152;2022-11-21T13:12:32;11.30;99.90
14769;DHT22;7476;49.404;11.152;2022-11-21T13:15:12;10.60;99.90
14769;DHT22;7476;49.404;11.152;2022-11-21T13:17:45;9.80;99.90
14769;DHT22;7476;49.404;11.152;2022-11-21T13:20:20;9.20;99.90
14769;DHT22;7476;49.404;11.152;2022-11-21T13:22:58;9.00;99.90
14769;DHT22;7476;49.404;11.152;2022-11-21T13:25:43;8.90;99.90
14769;DHT22;7476;49.404;11.152;2022-11-21T13:31:29;8.60;99.90
14769;DHT22;7476;49.404;11.152;2022-11-21T13:33:57;10.30;99.90
14769;DHT22;7476;49.404;11.152;2022-11-21T13:36:40;11.70;99.90
14769;DHT22;7476;49.404;11.152;2022-11-21T13:39:25;11.90;99.90
14769;DHT22;7476;49.404;11.152;2022-11-21T13:42:11;11.80;99.90
14769;DHT22;7476;49.404;11.152;2022-11-21T13:44:55;12.10;99.90
14769;DHT22;7476;49.404;11.152;2022-11-21T13:50:44;13.70;99.90
14769;DHT22;7476;49.404;11.152;2022-11-21T13:53:29;14.10;99.90
14769;DHT22;7476;49.404;11.152;2022-11-21T13:56:07;13.40;99.90
14769;DHT22;7476;49.404;11.152;2022-11-21T13:58:48;12.50;99.90
14769;DHT22;7476;49.404;11.152;2022-11-21T14:04:37;13.20;99.90
14769;DHT22;7476;49.404;11.152;2022-11-21T14:07:22;14.10;99.90
14769;DHT22;7476;49.404;11.152;2022-11-21T14:09:53;14.20;99.90
14769;DHT22;7476;49.404;11.152;2022-11-21T14:12:24;14.30;99.90
14769;DHT22;7476;49.404;11.152;2022-11-21T14:15:09;14.30;99.90
14769;DHT22;7476;49.404;11.152;2022-11-21T14:17:42;14.90;99.90
14769;DHT22;7476;49.404;11.152;2022-11-21T14:20:16;14.70;99.90
14769;DHT22;7476;49.404;11.152;2022-11-21T14:22:46;14.50;99.90
14769;DHT22;7476;49.404;11.152;2022-11-21T14:25:19;14.10;99.90
14769;DHT22;7476;49.404;11.152;2022-11-21T14:27:48;13.80;99.90
14769;DHT22;7476;49.404;11.152;2022-11-21T14:30:30;13.60;99.90
14769;DHT22;7476;49.404;11.152;2022-11-21T14:33:21;13.20;99.90
14769;DHT22;7476;49.404;11.152;2022-11-21T14:35:51;12.90;99.90
14769;DHT22;7476;49.404;11.152;2022-11-21T14:38:19;12.70;99.90
14769;DHT22;7476;49.404;11.152;2022-11-21T14:40:47;12.60;99.90
14769;DHT22;7476;49.404;11.152;2022-11-21T14:43:28;12.20;99.90
14769;DHT22;7476;49.404;11.152;2022-11-21T14:45:57;12.50;99.90
14769;DHT22;7476;49.404;11.152;2022-11-21T14:48:26;12.00;99.90
14769;DHT22;7476;49.404;11.152;2022-11-21T14:50:55;10.90;99.90
14769;DHT22;7476;49.404;11.152;2022-11-21T14:53:23;9.80;99.90
14769;DHT22;7476;49.404;11.152;2022-11-21T14:55:51;8.60;99.90
14769;DHT22;7476;49.404;11.152;2022-11-21T14:58:18;7.70;99.90
14769;DHT22;7476;49.404;11.152;2022-11-21T15:01:19;6.90;99.90
14769;DHT22;7476;49.404;11.152;2022-11-21T15:03:54;6.20;99.90
14769;DHT22;7476;49.404;11.152;2022-11-21T15:06:21;5.50;99.90
14769;DHT22;7476;49.404;11.152;2022-11-21T15:08:48;5.10;99.90
14769;DHT22;7476;49.404;11.152;2022-11-21T15:11:16;4.80;99.90
14769;DHT22;7476;49.404;11.152;2022-11-21T15:13:47;4.50;99.90
14769;DHT22;7476;49.404;11.152;2022-11-21T15:16:16;4.10;99.90
14769;DHT22;7476;49.404;11.152;2022-11-21T15:18:43;3.90;99.90
14769;DHT22;7476;49.404;11.152;2022-11-21T15:21:13;3.90;99.90
14769;DHT22;7476;49.404;11.152;2022-11-21T15:23:40;3.70;99.90
14769;DHT22;7476;49.404;11.152;2022-11-21T15:26:25;3.50;99.90
14769;DHT22;7476;49.404;11.152;2022-11-21T15:28:53;3.20;99.90
14769;DHT22;7476;49.404;11.152;2022-11-21T15:31:22;2.90;99.90
14769;DHT22;7476;49.404;11.152;2022-11-21T15:33:59;2.60;99.90
14769;DHT22;7476;49.404;11.152;2022-11-21T15:36:28;2.40;99.90
14769;DHT22;7476;49.404;11.152;2022-11-21T15:38:56;2.30;99.90
14769;DHT22;7476;49.404;11.152;2022-11-21T15:41:29;2.20;99.90
14769;DHT22;7476;49.404;11.152;2022-11-21T15:44:18;2.10;99.90
14769;DHT22;7476;49.404;11.152;2022-11-21T15:46:50;2.00;99.90
14769;DHT22;7476;49.404;11.152;2022-11-21T15:49:17;2.00;99.90
14769;DHT22;7476;49.404;11.152;2022-11-21T15:51:45;2.00;99.90
14769;DHT22;7476;49.404;11.152;2022-11-21T15:54:13;1.80;99.90
14769;DHT22;7476;49.404;11.152;2022-11-21T15:56:40;1.70;99.90
14769;DHT22;7476;49.404;11.152;2022-11-21T15:59:07;1.50;99.90
14769;DHT22;7476;49.404;11.152;2022-11-21T16:01:34;1.50;99.90
14769;DHT22;7476;49.404;11.152;2022-11-21T16:04:04;1.30;99.90
14769;DHT22;7476;49.404;11.152;2022-11-21T16:06:32;1.50;99.90
14769;DHT22;7476;49.404;11.152;2022-11-21T16:08:59;1.70;99.90
14769;DHT22;7476;49.404;11.152;2022-11-21T16:11:28;1.70;99.90
14769;DHT22;7476;49.404;11.152;2022-11-21T16:13:56;1.60;99.90
14769;DHT22;7476;49.404;11.152;2022-11-21T16:16:25;1.50;99.90